createdAt,value
2022-12-04T00:02:25.132Z,33.16
2022-12-04T00:04:51.701Z,33.02
2022-12-04T00:07:18.320Z,33.05
2022-12-04T00:09:44.863Z,33.23
2022-12-04T00:12:11.526Z,33.20
2022-12-04T00:15:00.799Z,33.28
2022-12-04T00:17:24.692Z,33.19
2022-12-04T00:19:51.146Z,33.32
2022-12-04T00:22:17.686Z,33.17
2022-12-04T00:24:44.152Z,33.23
2022-12-04T00:27:10.694Z,33.33
2022-12-04T00:29:37.403Z,33.31
2022-12-04T00:32:03.886Z,33.17
2022-12-04T00:34:30.353Z,33.27
2022-12-04T00:36:56.856Z,33.39
2022-12-04T00:39:23.328Z,33.34
2022-12-04T00:41:49.785Z,33.48
2022-12-04T00:44:16.233Z,33.37
2022-12-04T00:46:42.860Z,33.57
2022-12-04T00:49:09.312Z,33.43
2022-12-04T00:51:35.782Z,33.23
2022-12-04T00:54:02.325Z,33.41
2022-12-04T00:56:29.469Z,33.35
2022-12-04T00:58:57.785Z,33.46
2022-12-04T01:01:24.586Z,33.55
2022-12-04T01:03:51.323Z,33.46
2022-12-04T01:06:25.713Z,33.41
2022-12-04T01:08:52.738Z,33.50
2022-12-04T01:11:19.352Z,33.52
2022-12-04T01:13:46.109Z,33.45
2022-12-04T01:16:20.196Z,33.57
2022-12-04T01:18:47.041Z,33.71
2022-12-04T01:21:13.530Z,33.36
2022-12-04T01:23:40.010Z,33.51
2022-12-04T01:26:06.539Z,33.49
2022-12-04T01:28:32.978Z,33.58
2022-12-04T01:31:03.221Z,33.43
2022-12-04T01:33:29.809Z,33.57
2022-12-04T01:35:57.156Z,33.46
2022-12-04T01:38:24.337Z,33.53
2022-12-04T01:40:50.862Z,33.65
2022-12-04T01:43:17.849Z,33.57
2022-12-04T01:45:45.675Z,33.52
2022-12-04T01:48:25.116Z,33.60
2022-12-04T01:50:54.102Z,33.55
2022-12-04T01:53:20.556Z,33.56
2022-12-04T01:55:47.374Z,33.31
2022-12-04T01:58:13.881Z,33.70
2022-12-04T02:00:40.367Z,33.66
2022-12-04T02:03:06.902Z,33.65
2022-12-04T02:05:33.448Z,33.65
2022-12-04T02:08:00.966Z,33.65
2022-12-04T02:10:44.888Z,33.62
2022-12-04T02:13:19.771Z,33.52
2022-12-04T02:16:05.596Z,33.66
2022-12-04T02:18:41.113Z,33.64
2022-12-04T02:21:33.741Z,33.73
2022-12-04T02:24:22.498Z,33.66
2022-12-04T02:26:51.868Z,33.65
2022-12-04T02:29:46.384Z,33.58
2022-12-04T02:32:19.888Z,33.74
2022-12-04T02:34:55.525Z,33.54
2022-12-04T02:37:32.083Z,33.61
2022-12-04T02:40:07.811Z,33.74
2022-12-04T02:43:02.177Z,33.90
2022-12-04T02:45:37.267Z,33.71
2022-12-04T02:48:04.348Z,33.87
2022-12-04T02:50:30.899Z,33.81
2022-12-04T02:53:09.526Z,33.86
2022-12-04T02:55:40.315Z,33.75
2022-12-04T02:58:13.241Z,33.66
2022-12-04T03:00:40.075Z,33.72
2022-12-04T03:03:08.575Z,33.76
2022-12-04T03:05:51.064Z,33.79
2022-12-04T03:08:20.228Z,33.77
2022-12-04T03:10:52.273Z,33.77
2022-12-04T03:13:24.128Z,33.92
2022-12-04T03:15:53.672Z,33.80
2022-12-04T03:18:22.665Z,33.85
2022-12-04T03:20:50.348Z,33.83
2022-12-04T03:23:22.327Z,33.79
2022-12-04T03:25:57.511Z,33.57
2022-12-04T03:28:34.417Z,33.64
2022-12-04T03:31:04.787Z,33.69
2022-12-04T03:33:40.302Z,33.63
2022-12-04T03:36:27.918Z,33.55
2022-12-04T03:39:00.596Z,33.63
2022-12-04T03:41:57.251Z,33.58
2022-12-04T03:44:33.197Z,33.69
2022-12-04T03:47:04.693Z,33.52
2022-12-04T03:49:33.273Z,33.90
2022-12-04T03:52:07.638Z,33.78
2022-12-04T03:54:37.128Z,33.82
2022-12-04T03:57:12.887Z,33.78
2022-12-04T03:59:42.680Z,33.57
2022-12-04T04:02:12.435Z,33.57
2022-12-04T04:04:40.614Z,33.82
2022-12-04T04:07:44.382Z,33.78
2022-12-04T04:10:14.047Z,33.73
2022-12-04T04:12:44.077Z,33.92
2022-12-04T04:15:32.138Z,33.61
2022-12-04T04:18:17.479Z,33.74
2022-12-04T04:21:04.596Z,33.79
2022-12-04T04:23:52.360Z,33.74
2022-12-04T04:26:18.919Z,33.72
2022-12-04T04:28:45.782Z,33.80
2022-12-04T04:31:36.840Z,33.80
2022-12-04T04:34:24.669Z,33.81
2022-12-04T04:37:03.414Z,33.75
2022-12-04T04:39:32.091Z,33.85
2022-12-04T04:42:26.610Z,33.84
2022-12-04T04:45:05.697Z,33.83
2022-12-04T04:47:43.725Z,33.79
2022-12-04T04:50:11.039Z,34.02
2022-12-04T04:52:38.472Z,33.60
2022-12-04T04:55:05.241Z,33.76
2022-12-04T04:57:34.232Z,33.83
2022-12-04T05:00:01.026Z,33.77
2022-12-04T05:02:27.695Z,33.63
2022-12-04T05:04:54.731Z,33.59
2022-12-04T05:07:21.197Z,33.63
2022-12-04T05:09:47.644Z,33.62
2022-12-04T05:12:14.106Z,33.59
2022-12-04T05:14:40.582Z,33.49
2022-12-04T05:17:12.332Z,33.74
2022-12-04T05:19:55.030Z,33.67
2022-12-04T05:22:27.530Z,33.74
2022-12-04T05:24:54.074Z,33.66
2022-12-04T05:27:21.324Z,33.52
2022-12-04T05:29:47.789Z,33.51
2022-12-04T05:32:14.261Z,33.39
2022-12-04T05:34:40.791Z,33.43
2022-12-04T05:37:07.254Z,33.50
2022-12-04T05:39:34.308Z,33.31
2022-12-04T05:42:00.994Z,33.28
2022-12-04T05:44:27.484Z,33.36
2022-12-04T05:46:54.431Z,33.42
2022-12-04T05:49:20.921Z,33.30
2022-12-04T05:51:47.372Z,33.36
2022-12-04T05:54:13.817Z,33.23
2022-12-04T05:56:40.259Z,33.28
2022-12-04T05:59:06.709Z,33.31
2022-12-04T06:01:33.236Z,33.13
2022-12-04T06:03:59.727Z,33.03
2022-12-04T06:06:26.303Z,33.23
2022-12-04T06:08:54.986Z,33.15
2022-12-04T06:11:26.786Z,33.00
2022-12-04T06:13:53.274Z,32.82
2022-12-04T06:16:22.143Z,32.83
2022-12-04T06:18:50.195Z,32.80
2022-12-04T06:21:16.729Z,33.17
2022-12-04T06:23:43.189Z,32.97
2022-12-04T06:26:09.661Z,32.92
2022-12-04T06:28:36.366Z,32.86
2022-12-04T06:31:04.026Z,32.93
2022-12-04T06:33:30.523Z,32.69
2022-12-04T06:36:11.406Z,32.74
2022-12-04T06:38:38.192Z,32.73
2022-12-04T06:41:06.063Z,32.66
2022-12-04T06:43:32.647Z,32.60
2022-12-04T06:46:06.970Z,32.50
2022-12-04T06:48:33.543Z,32.45
2022-12-04T06:51:01.106Z,32.42
2022-12-04T06:53:30.172Z,32.38
2022-12-04T06:56:00.523Z,32.43
2022-12-04T06:58:27.086Z,32.48
2022-12-04T07:00:53.921Z,32.44
2022-12-04T07:03:20.474Z,32.26
2022-12-04T07:05:46.945Z,32.23
2022-12-04T07:08:14.068Z,32.43
2022-12-04T07:10:40.525Z,32.23
2022-12-04T07:13:07.049Z,32.33
2022-12-04T07:15:34.503Z,32.33
2022-12-04T07:18:01.045Z,32.24
2022-12-04T07:20:27.569Z,32.32
2022-12-04T07:22:54.038Z,32.14
2022-12-04T07:25:20.490Z,32.44
2022-12-04T07:27:46.986Z,32.38
2022-12-04T07:30:15.868Z,32.56
2022-12-04T07:32:42.605Z,32.50
2022-12-04T07:35:09.204Z,32.53
2022-12-04T07:37:35.981Z,32.40
2022-12-04T07:40:03.531Z,32.44
2022-12-04T07:42:30.003Z,32.47
2022-12-04T07:44:56.452Z,32.42
2022-12-04T07:47:22.902Z,32.29
2022-12-04T07:49:49.412Z,32.23
2022-12-04T07:52:16.109Z,32.25
2022-12-04T07:54:42.559Z,32.16
2022-12-04T07:57:09.013Z,32.17
2022-12-04T07:59:35.456Z,32.42
2022-12-04T08:02:01.949Z,32.43
2022-12-04T08:04:28.845Z,32.44
2022-12-04T08:06:55.619Z,32.55
2022-12-04T08:09:22.246Z,32.52
2022-12-04T08:11:48.692Z,32.43
2022-12-04T08:14:15.242Z,32.26
2022-12-04T08:16:41.733Z,32.18
2022-12-04T08:19:08.210Z,32.11
2022-12-04T08:21:34.738Z,32.06
2022-12-04T08:24:01.265Z,32.17
2022-12-04T08:26:28.929Z,32.24
2022-12-04T08:28:56.215Z,32.15
2022-12-04T08:31:27.457Z,32.28
2022-12-04T08:33:54.746Z,32.43
2022-12-04T08:36:21.699Z,32.52
2022-12-04T08:38:48.589Z,32.48
2022-12-04T08:41:16.114Z,32.50
2022-12-04T08:43:42.571Z,32.48
2022-12-04T08:46:10.840Z,32.60
2022-12-04T08:48:37.356Z,32.54
2022-12-04T08:51:04.360Z,32.52
2022-12-04T08:53:31.226Z,32.52
2022-12-04T08:55:57.677Z,32.39
2022-12-04T08:58:24.146Z,32.38
2022-12-04T09:00:50.596Z,32.32
2022-12-04T09:03:18.271Z,32.41
2022-12-04T09:05:47.870Z,32.36
2022-12-04T09:08:15.242Z,32.39
2022-12-04T09:10:42.056Z,32.29
2022-12-04T09:13:08.615Z,32.30
2022-12-04T09:15:35.144Z,32.29
2022-12-04T09:18:01.624Z,32.07
2022-12-04T09:20:28.583Z,31.85
2022-12-04T09:23:04.125Z,31.99
2022-12-04T09:25:31.847Z,32.06
2022-12-04T09:27:58.309Z,32.06
2022-12-04T09:30:24.763Z,32.24
2022-12-04T09:32:51.314Z,32.16
2022-12-04T09:35:17.775Z,32.50
2022-12-04T09:37:44.225Z,32.73
2022-12-04T09:40:19.782Z,32.66
2022-12-04T09:42:49.837Z,32.70
2022-12-04T09:45:21.064Z,32.62
2022-12-04T09:47:49.005Z,32.53
2022-12-04T09:50:20.912Z,32.80
2022-12-04T09:53:03.516Z,32.73
2022-12-04T09:55:36.348Z,32.90
2022-12-04T09:58:04.837Z,32.76
2022-12-04T10:00:42.059Z,32.82
2022-12-04T10:03:16.552Z,32.76
2022-12-04T10:06:03.984Z,32.74
2022-12-04T10:08:44.125Z,33.23
2022-12-04T10:11:41.400Z,32.95
2022-12-04T10:14:30.378Z,32.87
2022-12-04T10:17:21.643Z,32.44
2022-12-04T10:20:09.116Z,32.50
2022-12-04T10:22:41.750Z,32.27
2022-12-04T10:25:24.229Z,32.65
2022-12-04T10:27:53.970Z,32.92
2022-12-04T10:30:23.604Z,32.86
2022-12-04T10:33:11.893Z,32.58
2022-12-04T10:35:38.673Z,32.63
2022-12-04T10:38:11.318Z,32.58
2022-12-04T10:40:41.691Z,32.64
2022-12-04T10:43:16.849Z,32.41
2022-12-04T10:45:43.353Z,32.09
2022-12-04T10:48:29.271Z,31.84
2022-12-04T10:50:55.860Z,32.14
2022-12-04T10:53:24.682Z,31.86
2022-12-04T10:55:51.131Z,32.32
2022-12-04T10:58:18.086Z,32.07
2022-12-04T11:00:45.769Z,32.23
2022-12-04T11:03:25.691Z,32.27
2022-12-04T11:06:05.502Z,32.25
2022-12-04T11:08:36.529Z,32.14
2022-12-04T11:11:11.413Z,31.80
2022-12-04T11:13:38.133Z,31.93
2022-12-04T11:16:06.498Z,31.63
2022-12-04T11:18:46.242Z,31.59
2022-12-04T11:21:17.252Z,31.73
2022-12-04T11:23:48.536Z,31.83
2022-12-04T11:26:15.374Z,32.06
2022-12-04T11:28:45.841Z,31.94
2022-12-04T11:31:17.052Z,31.93
2022-12-04T11:33:46.187Z,31.80
2022-12-04T11:36:32.027Z,31.75
2022-12-04T11:39:15.555Z,31.74
2022-12-04T11:41:42.112Z,31.77
2022-12-04T11:44:28.377Z,31.57
2022-12-04T11:46:56.510Z,31.59
2022-12-04T11:49:23.939Z,31.58
2022-12-04T11:52:12.317Z,31.32
2022-12-04T11:54:51.753Z,31.30
2022-12-04T11:57:32.031Z,31.46
2022-12-04T12:00:15.115Z,31.67
2022-12-04T12:03:10.900Z,31.80
2022-12-04T12:05:46.284Z,31.60
2022-12-04T12:08:18.726Z,31.81
2022-12-04T12:11:11.171Z,31.76
2022-12-04T12:13:55.032Z,31.63
2022-12-04T12:16:36.645Z,31.41
2022-12-04T12:19:18.204Z,31.43
2022-12-04T12:22:25.929Z,31.68
2022-12-04T12:25:03.956Z,31.36
2022-12-04T12:27:34.983Z,31.22
2022-12-04T12:30:23.451Z,31.25
2022-12-04T12:32:58.904Z,31.06
2022-12-04T12:35:39.651Z,30.80
2022-12-04T12:38:16.245Z,30.76
2022-12-04T12:40:50.082Z,30.59
2022-12-04T12:43:26.280Z,30.60
2022-12-04T12:45:54.021Z,30.47
2022-12-04T12:48:44.920Z,30.52
2022-12-04T12:51:32.207Z,30.49
2022-12-04T12:54:09.063Z,30.58
2022-12-04T12:56:38.432Z,30.43
2022-12-04T12:59:06.021Z,30.31
2022-12-04T13:01:46.191Z,30.20
2022-12-04T13:04:16.006Z,30.00
2022-12-04T13:06:43.166Z,30.08
2022-12-04T13:09:25.575Z,30.14
2022-12-04T13:11:54.133Z,30.33
2022-12-04T13:14:20.790Z,30.27
2022-12-04T13:16:51.270Z,30.13
2022-12-04T13:19:29.831Z,30.21
2022-12-04T13:22:15.664Z,30.33
2022-12-04T13:25:04.687Z,30.39
2022-12-04T13:27:50.261Z,30.31
2022-12-04T13:30:49.597Z,30.27
2022-12-04T13:33:18.555Z,30.55
2022-12-04T13:36:03.325Z,30.36
2022-12-04T13:38:49.915Z,30.54
2022-12-04T13:41:21.847Z,30.81
2022-12-04T13:43:49.222Z,30.95
2022-12-04T13:46:34.853Z,31.04
2022-12-04T13:49:31.163Z,31.26
2022-12-04T13:51:58.601Z,31.19
2022-12-04T13:54:26.232Z,31.24
2022-12-04T13:56:55.501Z,31.43
2022-12-04T13:59:35.207Z,31.42
2022-12-04T14:02:21.723Z,31.56
2022-12-04T14:05:06.579Z,31.66
2022-12-04T14:07:43.211Z,31.66
2022-12-04T14:10:15.786Z,31.74
2022-12-04T14:12:48.954Z,31.59
2022-12-04T14:15:22.169Z,31.47
2022-12-04T14:18:03.431Z,31.67
2022-12-04T14:20:31.952Z,31.77
2022-12-04T14:23:33.403Z,31.74
2022-12-04T14:26:00.105Z,31.89
2022-12-04T14:28:37.321Z,31.78
2022-12-04T14:31:14.326Z,31.80
2022-12-04T14:33:55.693Z,31.68
2022-12-04T14:36:31.397Z,31.60
2022-12-04T14:39:22.855Z,32.04
2022-12-04T14:41:49.334Z,32.11
2022-12-04T14:44:34.077Z,31.97
2022-12-04T14:47:19.258Z,31.83
2022-12-04T14:50:02.950Z,32.19
2022-12-04T14:52:32.992Z,32.26
2022-12-04T14:55:07.354Z,32.40
2022-12-04T14:58:21.729Z,32.38
2022-12-04T15:00:54.955Z,32.34
2022-12-04T15:03:21.949Z,32.24
2022-12-04T15:05:49.688Z,32.36
2022-12-04T15:08:16.415Z,32.35
2022-12-04T15:11:07.826Z,32.48
2022-12-04T15:13:37.247Z,32.33
2022-12-04T15:16:16.715Z,32.15
2022-12-04T15:18:53.577Z,32.26
2022-12-04T15:21:20.028Z,32.27
2022-12-04T15:23:46.483Z,32.18
2022-12-04T15:26:20.956Z,32.43
2022-12-04T15:29:03.429Z,32.40
2022-12-04T15:31:32.359Z,32.38
2022-12-04T15:34:01.494Z,32.35
2022-12-04T15:36:30.507Z,32.35
2022-12-04T15:38:56.965Z,32.48
2022-12-04T15:41:29.311Z,32.34
2022-12-04T15:43:55.770Z,32.23
2022-12-04T15:46:23.904Z,32.24
2022-12-04T15:48:50.443Z,32.25
2022-12-04T15:51:18.924Z,32.16
2022-12-04T15:53:45.861Z,32.04
2022-12-04T15:56:21.808Z,32.19
2022-12-04T15:58:59.401Z,32.07
2022-12-04T16:01:25.918Z,32.16
2022-12-04T16:03:53.309Z,32.26
2022-12-04T16:06:23.191Z,31.88
2022-12-04T16:08:57.362Z,31.83
2022-12-04T16:11:28.740Z,31.67
2022-12-04T16:14:07.999Z,31.36
2022-12-04T16:16:37.437Z,31.35
2022-12-04T16:19:27.670Z,31.11
2022-12-04T16:21:54.181Z,31.07
2022-12-04T16:24:21.547Z,30.86
2022-12-04T16:26:50.105Z,30.66
2022-12-04T16:29:17.614Z,30.79
2022-12-04T16:31:44.155Z,30.92
2022-12-04T16:34:13.830Z,30.68
2022-12-04T16:36:40.597Z,30.95
2022-12-04T16:39:07.116Z,30.72
2022-12-04T16:41:33.833Z,30.59
2022-12-04T16:44:00.532Z,30.67
2022-12-04T16:46:28.131Z,30.49
2022-12-04T16:48:54.896Z,30.46
2022-12-04T16:51:25.378Z,30.56
2022-12-04T16:53:52.012Z,30.78
2022-12-04T16:56:18.949Z,30.54
2022-12-04T16:58:45.387Z,30.75
2022-12-04T17:01:24.742Z,30.56
2022-12-04T17:03:51.347Z,30.99
2022-12-04T17:06:18.221Z,30.80
2022-12-04T17:08:44.795Z,30.59
2022-12-04T17:11:15.263Z,31.23
2022-12-04T17:13:41.893Z,31.38
2022-12-04T17:16:08.784Z,31.46
2022-12-04T17:18:35.298Z,31.35
2022-12-04T17:21:08.511Z,31.10
2022-12-04T17:23:34.989Z,31.52
2022-12-04T17:26:05.555Z,31.76
2022-12-04T17:28:32.111Z,32.40
2022-12-04T17:30:58.743Z,32.64
2022-12-04T17:33:25.677Z,32.44
2022-12-04T17:35:53.968Z,32.29
2022-12-04T17:38:20.509Z,32.21
2022-12-04T17:40:58.048Z,32.98
2022-12-04T17:43:24.609Z,33.02
2022-12-04T17:45:51.143Z,32.83
2022-12-04T17:48:17.598Z,32.90
2022-12-04T17:50:44.109Z,33.26
2022-12-04T17:53:10.616Z,33.61
2022-12-04T17:55:37.126Z,33.49
2022-12-04T17:58:03.760Z,33.54
2022-12-04T18:00:30.381Z,33.43
2022-12-04T18:02:57.022Z,33.37
2022-12-04T18:05:23.545Z,33.14
2022-12-04T18:07:50.146Z,32.72
2022-12-04T18:10:16.688Z,32.72
2022-12-04T18:12:43.575Z,32.97
2022-12-04T18:15:10.615Z,32.81
2022-12-04T18:17:37.125Z,32.80
2022-12-04T18:20:05.333Z,33.21
2022-12-04T18:22:32.274Z,33.40
2022-12-04T18:24:58.963Z,34.02
2022-12-04T18:27:25.620Z,33.90
2022-12-04T18:29:52.164Z,33.63
2022-12-04T18:32:18.818Z,33.98
2022-12-04T18:34:45.667Z,33.99
2022-12-04T18:37:12.203Z,33.85
2022-12-04T18:39:38.664Z,33.84
2022-12-04T18:42:05.261Z,34.68
2022-12-04T18:44:31.807Z,35.26
2022-12-04T18:46:58.472Z,35.36
2022-12-04T18:49:25.172Z,35.85
2022-12-04T18:51:51.834Z,36.31
2022-12-04T18:54:19.930Z,36.36
2022-12-04T18:56:46.600Z,36.34
2022-12-04T18:59:21.246Z,36.44
2022-12-04T19:01:49.946Z,36.26
2022-12-04T19:04:18.346Z,36.07
2022-12-04T19:06:46.718Z,36.20
2022-12-04T19:09:15.794Z,36.22
2022-12-04T19:11:42.356Z,36.07
2022-12-04T19:14:17.682Z,35.41
2022-12-04T19:17:04.858Z,35.37
2022-12-04T19:19:31.916Z,35.36
2022-12-04T19:21:59.018Z,36.00
2022-12-04T19:24:25.533Z,35.66
2022-12-04T19:26:53.308Z,35.84
2022-12-04T19:29:19.717Z,35.69
2022-12-04T19:31:46.168Z,35.56
2022-12-04T19:34:12.602Z,35.67
2022-12-04T19:36:40.269Z,35.66
2022-12-04T19:39:09.255Z,35.53
2022-12-04T19:41:37.216Z,35.63
2022-12-04T19:44:19.982Z,35.56
2022-12-04T19:46:50.499Z,35.33
2022-12-04T19:49:16.914Z,35.20
2022-12-04T19:51:43.600Z,35.22
2022-12-04T19:54:12.776Z,35.49
2022-12-04T19:56:39.235Z,35.55
2022-12-04T19:59:06.762Z,35.41
2022-12-04T20:01:33.553Z,35.61
2022-12-04T20:04:02.476Z,35.43
2022-12-04T20:06:29.250Z,35.44
2022-12-04T20:08:57.635Z,35.84
2022-12-04T20:11:24.113Z,35.83
2022-12-04T20:13:53.878Z,35.54
2022-12-04T20:16:20.544Z,35.73
2022-12-04T20:18:47.101Z,35.79
2022-12-04T20:21:13.666Z,35.31
2022-12-04T20:23:49.431Z,35.01
2022-12-04T20:26:23.393Z,34.90
2022-12-04T20:28:49.924Z,34.80
2022-12-04T20:31:20.873Z,34.79
2022-12-04T20:33:48.133Z,34.78
2022-12-04T20:36:15.639Z,34.69
2022-12-04T20:38:42.321Z,34.60
2022-12-04T20:41:10.190Z,34.59
2022-12-04T20:43:36.774Z,34.27
2022-12-04T20:46:13.589Z,34.48
2022-12-04T20:48:40.094Z,34.24
2022-12-04T20:51:06.666Z,34.28
2022-12-04T20:53:33.139Z,34.03
2022-12-04T20:55:59.575Z,34.15
2022-12-04T20:58:26.051Z,33.31
2022-12-04T21:00:52.537Z,33.47
2022-12-04T21:03:19.040Z,33.30
2022-12-04T21:05:49.789Z,33.77
2022-12-04T21:08:36.200Z,33.86
2022-12-04T21:11:02.979Z,33.80
2022-12-04T21:13:48.127Z,33.80
2022-12-04T21:16:14.843Z,34.24
2022-12-04T21:18:41.350Z,33.96
2022-12-04T21:21:07.803Z,34.05
2022-12-04T21:23:35.864Z,34.12
2022-12-04T21:26:02.367Z,34.38
2022-12-04T21:28:28.835Z,34.32
2022-12-04T21:31:03.438Z,34.33
2022-12-04T21:33:31.554Z,34.38
2022-12-04T21:36:06.399Z,34.46
2022-12-04T21:38:33.951Z,34.61
2022-12-04T21:41:00.562Z,34.13
2022-12-04T21:43:28.724Z,33.99
2022-12-04T21:46:09.048Z,33.90
2022-12-04T21:48:36.309Z,33.98
2022-12-04T21:51:13.235Z,34.35
2022-12-04T21:53:54.534Z,34.16
2022-12-04T21:56:24.336Z,34.52
2022-12-04T21:58:51.383Z,34.36
2022-12-04T22:01:18.569Z,34.70
2022-12-04T22:03:45.123Z,34.55
2022-12-04T22:06:11.586Z,34.76
2022-12-04T22:08:39.393Z,34.88
2022-12-04T22:11:06.834Z,34.58
2022-12-04T22:13:33.485Z,34.66
2022-12-04T22:16:06.120Z,34.89
2022-12-04T22:18:33.744Z,34.76
2022-12-04T22:21:00.892Z,35.02
2022-12-04T22:23:27.381Z,34.63
2022-12-04T22:25:53.828Z,35.17
2022-12-04T22:28:20.315Z,34.68
2022-12-04T22:30:46.984Z,34.76
2022-12-04T22:33:13.452Z,34.33
2022-12-04T22:35:39.901Z,34.32
2022-12-04T22:38:06.364Z,34.59
2022-12-04T22:40:32.992Z,34.46
2022-12-04T22:42:59.437Z,34.95
2022-12-04T22:45:25.886Z,34.56
2022-12-04T22:47:52.404Z,34.64
2022-12-04T22:50:18.953Z,34.82
2022-12-04T22:52:45.474Z,34.86
2022-12-04T22:55:11.922Z,35.00
2022-12-04T22:57:38.384Z,34.83
2022-12-04T23:00:05.778Z,35.15
2022-12-04T23:02:32.890Z,34.15
2022-12-04T23:04:59.393Z,33.88
2022-12-04T23:07:25.894Z,33.65
2022-12-04T23:09:52.689Z,33.61
2022-12-04T23:12:19.384Z,33.75
2022-12-04T23:14:45.834Z,33.77
2022-12-04T23:17:12.286Z,33.72
2022-12-04T23:19:38.757Z,33.92
2022-12-04T23:22:05.218Z,33.85
2022-12-04T23:24:31.716Z,33.81
2022-12-04T23:26:58.226Z,33.83
2022-12-04T23:32:11.207Z,33.85
2022-12-04T23:34:38.125Z,33.75
2022-12-04T23:37:04.584Z,33.81
2022-12-04T23:39:31.045Z,33.78
2022-12-04T23:41:57.506Z,33.60
2022-12-04T23:44:23.961Z,33.65
2022-12-04T23:46:50.484Z,33.94
2022-12-04T23:49:16.975Z,33.87
2022-12-04T23:51:43.435Z,33.84
2022-12-04T23:54:09.880Z,33.74
2022-12-04T23:56:36.324Z,33.79
2022-12-04T23:59:02.785Z,33.87
